sensor_id;sensor_type;location;lat;lon;timestamp;pressure;altitude;pressure_sealevel;temperature;humidity
52653;BME280;39353;42.864;12.014;2023-01-10T00:01:08;96576.13;;;21.83;54.50
52653;BME280;39353;42.864;12.014;2023-01-10T00:03:35;96572.52;;;21.80;54.63
52653;BME280;39353;42.864;12.014;2023-01-10T00:06:17;96573.24;;;21.76;54.57
52653;BME280;39353;42.864;12.014;2023-01-10T00:08:44;96573.44;;;21.74;54.60
52653;BME280;39353;42.864;12.014;2023-01-10T00:11:13;96573.35;;;21.71;54.70
52653;BME280;39353;42.864;12.014;2023-01-10T00:13:58;96573.59;;;21.69;54.58
52653;BME280;39353;42.864;12.014;2023-01-10T00:16:40;96568.09;;;21.66;54.62
52653;BME280;39353;42.864;12.014;2023-01-10T00:19:22;96570.64;;;21.64;54.72
52653;BME280;39353;42.864;12.014;2023-01-10T00:21:49;96569.70;;;21.61;54.82
52653;BME280;39353;42.864;12.014;2023-01-10T00:24:30;96569.77;;;21.58;54.87
52653;BME280;39353;42.864;12.014;2023-01-10T00:27:00;96573.38;;;21.57;54.98
52653;BME280;39353;42.864;12.014;2023-01-10T00:29:43;96571.77;;;21.55;55.00
52653;BME280;39353;42.864;12.014;2023-01-10T00:32:24;96572.98;;;21.53;55.08
52653;BME280;39353;42.864;12.014;2023-01-10T00:34:52;96575.24;;;21.50;55.17
52653;BME280;39353;42.864;12.014;2023-01-10T00:37:19;96586.59;;;21.50;55.16
52653;BME280;39353;42.864;12.014;2023-01-10T00:39:46;96585.59;;;21.48;55.20
52653;BME280;39353;42.864;12.014;2023-01-10T00:42:28;96587.20;;;21.46;55.04
52653;BME280;39353;42.864;12.014;2023-01-10T00:45:14;96594.38;;;21.45;55.17
52653;BME280;39353;42.864;12.014;2023-01-10T00:47:56;96592.39;;;21.42;55.07
52653;BME280;39353;42.864;12.014;2023-01-10T00:50:37;96593.70;;;21.40;55.28
52653;BME280;39353;42.864;12.014;2023-01-10T00:53:06;96594.95;;;21.39;55.10
52653;BME280;39353;42.864;12.014;2023-01-10T00:55:35;96599.88;;;21.37;55.22
52653;BME280;39353;42.864;12.014;2023-01-10T00:58:16;96604.81;;;21.34;55.16
52653;BME280;39353;42.864;12.014;2023-01-10T01:00:43;96610.96;;;21.32;55.41
52653;BME280;39353;42.864;12.014;2023-01-10T01:03:18;96611.75;;;21.29;55.25
52653;BME280;39353;42.864;12.014;2023-01-10T01:05:46;96614.81;;;21.26;55.21
52653;BME280;39353;42.864;12.014;2023-01-10T01:08:29;96621.67;;;21.25;55.26
52653;BME280;39353;42.864;12.014;2023-01-10T01:11:10;96628.30;;;21.24;55.33
52653;BME280;39353;42.864;12.014;2023-01-10T01:13:51;96631.35;;;21.23;55.44
52653;BME280;39353;42.864;12.014;2023-01-10T01:16:32;96635.23;;;21.20;55.45
52653;BME280;39353;42.864;12.014;2023-01-10T01:19:00;96640.35;;;21.19;55.58
52653;BME280;39353;42.864;12.014;2023-01-10T01:21:27;96639.95;;;21.18;55.54
52653;BME280;39353;42.864;12.014;2023-01-10T01:23:54;96643.85;;;21.17;55.64
52653;BME280;39353;42.864;12.014;2023-01-10T01:26:38;96652.38;;;21.14;55.51
52653;BME280;39353;42.864;12.014;2023-01-10T01:29:21;96660.87;;;21.13;55.55
52653;BME280;39353;42.864;12.014;2023-01-10T01:32:02;96665.11;;;21.12;55.66
52653;BME280;39353;42.864;12.014;2023-01-10T01:34:44;96668.64;;;21.12;55.55
52653;BME280;39353;42.864;12.014;2023-01-10T01:37:12;96674.70;;;21.11;55.53
52653;BME280;39353;42.864;12.014;2023-01-10T01:39:53;96676.46;;;21.09;55.71
52653;BME280;39353;42.864;12.014;2023-01-10T01:42:25;96685.45;;;21.09;55.53
52653;BME280;39353;42.864;12.014;2023-01-10T01:48:19;96695.45;;;21.07;55.49
52653;BME280;39353;42.864;12.014;2023-01-10T01:53:54;96712.06;;;21.04;55.74
52653;BME280;39353;42.864;12.014;2023-01-10T01:58:57;96711.32;;;21.02;55.48
52653;BME280;39353;42.864;12.014;2023-01-10T02:01:45;96715.43;;;21.00;55.75
52653;BME280;39353;42.864;12.014;2023-01-10T02:04:35;96718.99;;;20.98;55.61
52653;BME280;39353;42.864;12.014;2023-01-10T02:07:05;96721.75;;;20.96;55.69
52653;BME280;39353;42.864;12.014;2023-01-10T02:09:52;96729.23;;;20.95;55.71
52653;BME280;39353;42.864;12.014;2023-01-10T02:12:35;96733.51;;;20.92;55.65
52653;BME280;39353;42.864;12.014;2023-01-10T02:15:18;96738.61;;;20.91;55.79
52653;BME280;39353;42.864;12.014;2023-01-10T02:18:02;96739.04;;;20.91;55.81
52653;BME280;39353;42.864;12.014;2023-01-10T02:27:25;96752.39;;;20.87;55.75
52653;BME280;39353;42.864;12.014;2023-01-10T02:30:28;96756.67;;;20.86;55.53
52653;BME280;39353;42.864;12.014;2023-01-10T02:33:29;96759.93;;;20.85;55.58
52653;BME280;39353;42.864;12.014;2023-01-10T02:42:23;96775.26;;;20.82;55.71
52653;BME280;39353;42.864;12.014;2023-01-10T02:45:03;96779.39;;;20.81;55.65
52653;BME280;39353;42.864;12.014;2023-01-10T02:47:40;96778.08;;;20.82;55.60
52653;BME280;39353;42.864;12.014;2023-01-10T02:53:09;96777.23;;;20.79;55.64
52653;BME280;39353;42.864;12.014;2023-01-10T03:07:45;96803.08;;;20.73;55.70
52653;BME280;39353;42.864;12.014;2023-01-10T03:11:01;96814.82;;;20.71;55.82
52653;BME280;39353;42.864;12.014;2023-01-10T03:16:29;96816.19;;;20.69;55.68
52653;BME280;39353;42.864;12.014;2023-01-10T03:19:12;96815.75;;;20.68;55.66
52653;BME280;39353;42.864;12.014;2023-01-10T03:21:43;96816.10;;;20.67;55.76
52653;BME280;39353;42.864;12.014;2023-01-10T03:24:23;96824.42;;;20.66;55.78
52653;BME280;39353;42.864;12.014;2023-01-10T03:32:43;96838.92;;;20.63;55.83
52653;BME280;39353;42.864;12.014;2023-01-10T03:35:12;96844.48;;;20.63;55.74
52653;BME280;39353;42.864;12.014;2023-01-10T03:37:44;96848.38;;;20.62;55.72
52653;BME280;39353;42.864;12.014;2023-01-10T03:43:42;96852.32;;;20.60;55.90
52653;BME280;39353;42.864;12.014;2023-01-10T03:46:58;96856.77;;;20.59;55.94
52653;BME280;39353;42.864;12.014;2023-01-10T03:49:45;96860.17;;;20.58;55.92
52653;BME280;39353;42.864;12.014;2023-01-10T03:52:17;96865.11;;;20.57;56.06
52653;BME280;39353;42.864;12.014;2023-01-10T03:54:59;96870.09;;;20.55;55.95
52653;BME280;39353;42.864;12.014;2023-01-10T03:57:28;96877.30;;;20.56;55.91
52653;BME280;39353;42.864;12.014;2023-01-10T03:59:57;96882.64;;;20.56;55.86
52653;BME280;39353;42.864;12.014;2023-01-10T04:02:30;96894.92;;;20.55;55.76
52653;BME280;39353;42.864;12.014;2023-01-10T04:04:58;96892.18;;;20.53;56.02
52653;BME280;39353;42.864;12.014;2023-01-10T04:07:39;96892.33;;;20.53;55.84
52653;BME280;39353;42.864;12.014;2023-01-10T04:10:07;96897.40;;;20.53;55.84
52653;BME280;39353;42.864;12.014;2023-01-10T04:12:49;96897.06;;;20.51;55.88
52653;BME280;39353;42.864;12.014;2023-01-10T04:15:16;96901.89;;;20.51;55.83
52653;BME280;39353;42.864;12.014;2023-01-10T04:17:46;96901.73;;;20.51;55.68
52653;BME280;39353;42.864;12.014;2023-01-10T04:20:15;96903.27;;;20.49;55.79
52653;BME280;39353;42.864;12.014;2023-01-10T04:22:58;96907.75;;;20.49;55.81
52653;BME280;39353;42.864;12.014;2023-01-10T04:25:25;96914.10;;;20.48;56.00
52653;BME280;39353;42.864;12.014;2023-01-10T04:28:07;96918.55;;;20.48;55.84
52653;BME280;39353;42.864;12.014;2023-01-10T04:30:34;96918.15;;;20.47;55.94
52653;BME280;39353;42.864;12.014;2023-01-10T04:33:02;96914.10;;;20.46;55.77
52653;BME280;39353;42.864;12.014;2023-01-10T04:35:50;96919.41;;;20.45;55.89
52653;BME280;39353;42.864;12.014;2023-01-10T04:38:31;96928.17;;;20.44;55.92
52653;BME280;39353;42.864;12.014;2023-01-10T04:40:58;96937.65;;;20.44;55.86
52653;BME280;39353;42.864;12.014;2023-01-10T04:43:26;96939.76;;;20.43;55.87
52653;BME280;39353;42.864;12.014;2023-01-10T04:45:54;96940.18;;;20.43;55.82
52653;BME280;39353;42.864;12.014;2023-01-10T04:48:35;96936.55;;;20.42;55.87
52653;BME280;39353;42.864;12.014;2023-01-10T04:51:17;96940.14;;;20.41;55.90
52653;BME280;39353;42.864;12.014;2023-01-10T04:53:58;96948.95;;;20.40;55.85
52653;BME280;39353;42.864;12.014;2023-01-10T04:56:25;96953.84;;;20.39;55.79
52653;BME280;39353;42.864;12.014;2023-01-10T04:59:16;96955.88;;;20.37;56.17
52653;BME280;39353;42.864;12.014;2023-01-10T05:02:09;96955.59;;;20.37;55.99
52653;BME280;39353;42.864;12.014;2023-01-10T05:04:50;96950.48;;;20.36;56.00
52653;BME280;39353;42.864;12.014;2023-01-10T05:07:31;96957.88;;;20.35;55.92
52653;BME280;39353;42.864;12.014;2023-01-10T05:10:03;96966.69;;;20.34;56.05
52653;BME280;39353;42.864;12.014;2023-01-10T05:12:31;96971.20;;;20.33;55.88
52653;BME280;39353;42.864;12.014;2023-01-10T05:14:58;96975.81;;;20.33;55.97
52653;BME280;39353;42.864;12.014;2023-01-10T05:17:40;96985.33;;;20.32;56.00
52653;BME280;39353;42.864;12.014;2023-01-10T05:20:09;96988.36;;;20.32;56.10
52653;BME280;39353;42.864;12.014;2023-01-10T05:22:36;96990.85;;;20.31;56.06
52653;BME280;39353;42.864;12.014;2023-01-10T05:25:05;96998.66;;;20.30;56.13
52653;BME280;39353;42.864;12.014;2023-01-10T05:27:33;97005.48;;;20.30;56.07
52653;BME280;39353;42.864;12.014;2023-01-10T05:30:15;97010.54;;;20.29;56.05
52653;BME280;39353;42.864;12.014;2023-01-10T05:32:42;97015.54;;;20.29;56.19
52653;BME280;39353;42.864;12.014;2023-01-10T05:35:23;97022.66;;;20.28;55.98
52653;BME280;39353;42.864;12.014;2023-01-10T05:37:51;97028.40;;;20.29;56.17
52653;BME280;39353;42.864;12.014;2023-01-10T05:40:33;97033.01;;;20.28;56.16
52653;BME280;39353;42.864;12.014;2023-01-10T05:43:15;97035.54;;;20.27;56.06
52653;BME280;39353;42.864;12.014;2023-01-10T05:45:56;97043.09;;;20.25;56.12
52653;BME280;39353;42.864;12.014;2023-01-10T05:48:23;97045.42;;;20.26;56.12
52653;BME280;39353;42.864;12.014;2023-01-10T05:51:05;97048.25;;;20.25;56.03
52653;BME280;39353;42.864;12.014;2023-01-10T05:53:46;97051.27;;;20.24;56.11
52653;BME280;39353;42.864;12.014;2023-01-10T05:56:27;97052.58;;;20.24;56.16
52653;BME280;39353;42.864;12.014;2023-01-10T05:59:09;97058.84;;;20.23;56.09
52653;BME280;39353;42.864;12.014;2023-01-10T06:01:36;97057.89;;;20.22;55.96
52653;BME280;39353;42.864;12.014;2023-01-10T06:04:17;97061.67;;;20.21;55.82
52653;BME280;39353;42.864;12.014;2023-01-10T06:06:58;97070.60;;;20.21;55.90
52653;BME280;39353;42.864;12.014;2023-01-10T06:09:38;97078.70;;;20.20;56.15
52653;BME280;39353;42.864;12.014;2023-01-10T06:12:20;97088.98;;;20.20;55.93
52653;BME280;39353;42.864;12.014;2023-01-10T06:15:00;97094.39;;;20.19;56.06
52653;BME280;39353;42.864;12.014;2023-01-10T06:17:43;97099.65;;;20.17;56.13
52653;BME280;39353;42.864;12.014;2023-01-10T06:20:25;97099.23;;;20.17;56.04
52653;BME280;39353;42.864;12.014;2023-01-10T06:23:06;97099.00;;;20.16;56.16
52653;BME280;39353;42.864;12.014;2023-01-10T06:25:35;97101.89;;;20.16;56.17
52653;BME280;39353;42.864;12.014;2023-01-10T06:28:11;97111.41;;;20.15;56.13
52653;BME280;39353;42.864;12.014;2023-01-10T06:30:53;97116.57;;;20.15;56.20
52653;BME280;39353;42.864;12.014;2023-01-10T06:33:35;97117.91;;;20.14;56.11
52653;BME280;39353;42.864;12.014;2023-01-10T06:36:18;97121.56;;;20.14;56.07
52653;BME280;39353;42.864;12.014;2023-01-10T06:38:46;97120.17;;;20.13;55.99
52653;BME280;39353;42.864;12.014;2023-01-10T06:41:13;97125.50;;;20.12;56.06
52653;BME280;39353;42.864;12.014;2023-01-10T06:43:43;97132.38;;;20.11;56.19
52653;BME280;39353;42.864;12.014;2023-01-10T06:46:27;97135.45;;;20.10;56.26
52653;BME280;39353;42.864;12.014;2023-01-10T06:48:59;97140.73;;;20.10;56.26
52653;BME280;39353;42.864;12.014;2023-01-10T06:51:42;97153.48;;;20.10;56.38
52653;BME280;39353;42.864;12.014;2023-01-10T06:54:11;97161.29;;;20.08;56.36
52653;BME280;39353;42.864;12.014;2023-01-10T06:56:39;97166.36;;;20.07;56.34
52653;BME280;39353;42.864;12.014;2023-01-10T06:59:20;97174.34;;;20.06;56.40
52653;BME280;39353;42.864;12.014;2023-01-10T07:02:00;97176.23;;;20.05;56.36
52653;BME280;39353;42.864;12.014;2023-01-10T07:04:27;97184.58;;;20.05;56.42
52653;BME280;39353;42.864;12.014;2023-01-10T07:07:09;97193.13;;;20.05;56.46
52653;BME280;39353;42.864;12.014;2023-01-10T07:09:50;97196.42;;;20.05;56.39
52653;BME280;39353;42.864;12.014;2023-01-10T07:12:17;97201.13;;;20.05;56.23
52653;BME280;39353;42.864;12.014;2023-01-10T07:14:45;97201.92;;;20.05;56.36
52653;BME280;39353;42.864;12.014;2023-01-10T07:17:12;97205.79;;;20.04;56.53
52653;BME280;39353;42.864;12.014;2023-01-10T07:19:40;97207.52;;;20.04;56.38
52653;BME280;39353;42.864;12.014;2023-01-10T07:22:11;97211.91;;;20.03;56.32
52653;BME280;39353;42.864;12.014;2023-01-10T07:24:39;97211.44;;;20.04;56.38
52653;BME280;39353;42.864;12.014;2023-01-10T07:27:07;97211.52;;;20.05;56.34
52653;BME280;39353;42.864;12.014;2023-01-10T07:29:34;97220.52;;;20.05;56.40
52653;BME280;39353;42.864;12.014;2023-01-10T07:32:15;97220.09;;;20.06;56.62
52653;BME280;39353;42.864;12.014;2023-01-10T07:34:44;97226.23;;;20.05;56.25
52653;BME280;39353;42.864;12.014;2023-01-10T07:37:25;97231.14;;;20.03;55.97
